sensor_id;sensor_type;location;lat;lon;timestamp;pressure;altitude;pressure_sealevel;temperature;humidity
12536;BME280;6334;48.696;2.114;2022-11-22T00:01:39;97793.34;;;5.38;100.00
12536;BME280;6334;48.696;2.114;2022-11-22T00:04:10;97796.03;;;5.56;100.00
12536;BME280;6334;48.696;2.114;2022-11-22T00:06:40;97788.13;;;5.49;100.00
12536;BME280;6334;48.696;2.114;2022-11-22T00:09:11;97783.42;;;5.50;100.00
12536;BME280;6334;48.696;2.114;2022-11-22T00:11:41;97774.30;;;5.46;100.00
12536;BME280;6334;48.696;2.114;2022-11-22T00:14:12;97774.91;;;5.43;100.00
12536;BME280;6334;48.696;2.114;2022-11-22T00:16:42;97774.21;;;5.44;100.00
12536;BME280;6334;48.696;2.114;2022-11-22T00:19:13;97776.89;;;5.44;100.00
12536;BME280;6334;48.696;2.114;2022-11-22T00:21:42;97778.22;;;5.60;100.00
12536;BME280;6334;48.696;2.114;2022-11-22T00:24:13;97775.08;;;5.47;100.00
12536;BME280;6334;48.696;2.114;2022-11-22T00:26:45;97774.22;;;5.46;100.00
12536;BME280;6334;48.696;2.114;2022-11-22T00:29:15;97775.17;;;5.33;100.00
12536;BME280;6334;48.696;2.114;2022-11-22T00:31:46;97776.60;;;5.46;100.00
12536;BME280;6334;48.696;2.114;2022-11-22T00:34:16;97776.18;;;5.45;100.00
12536;BME280;6334;48.696;2.114;2022-11-22T00:36:46;97772.16;;;5.53;100.00
12536;BME280;6334;48.696;2.114;2022-11-22T00:39:18;97769.58;;;5.27;100.00
12536;BME280;6334;48.696;2.114;2022-11-22T00:41:48;97768.78;;;5.38;100.00
12536;BME280;6334;48.696;2.114;2022-11-22T00:44:19;97775.07;;;5.31;100.00
12536;BME280;6334;48.696;2.114;2022-11-22T00:46:49;97777.22;;;5.38;100.00
12536;BME280;6334;48.696;2.114;2022-11-22T00:49:20;97780.46;;;5.52;100.00
12536;BME280;6334;48.696;2.114;2022-11-22T00:51:50;97785.94;;;5.33;100.00
12536;BME280;6334;48.696;2.114;2022-11-22T00:54:21;97787.28;;;5.35;100.00
12536;BME280;6334;48.696;2.114;2022-11-22T00:56:51;97784.23;;;5.43;100.00
12536;BME280;6334;48.696;2.114;2022-11-22T00:59:22;97784.13;;;5.42;100.00
12536;BME280;6334;48.696;2.114;2022-11-22T01:01:52;97782.33;;;5.67;100.00
12536;BME280;6334;48.696;2.114;2022-11-22T01:04:23;97766.14;;;5.26;100.00
12536;BME280;6334;48.696;2.114;2022-11-22T01:06:53;97786.45;;;5.55;100.00
12536;BME280;6334;48.696;2.114;2022-11-22T01:09:23;97781.88;;;5.46;100.00
12536;BME280;6334;48.696;2.114;2022-11-22T01:11:54;97778.13;;;5.67;100.00
12536;BME280;6334;48.696;2.114;2022-11-22T01:14:23;97773.58;;;5.57;100.00
12536;BME280;6334;48.696;2.114;2022-11-22T01:16:54;97778.91;;;5.73;100.00
12536;BME280;6334;48.696;2.114;2022-11-22T01:19:24;97775.56;;;5.52;100.00
12536;BME280;6334;48.696;2.114;2022-11-22T01:21:55;97766.05;;;5.61;100.00
12536;BME280;6334;48.696;2.114;2022-11-22T01:24:25;97762.63;;;5.60;100.00
12536;BME280;6334;48.696;2.114;2022-11-22T01:26:56;97768.53;;;5.58;100.00
12536;BME280;6334;48.696;2.114;2022-11-22T01:29:26;97774.33;;;5.56;100.00
12536;BME280;6334;48.696;2.114;2022-11-22T01:31:57;97781.30;;;5.48;100.00
12536;BME280;6334;48.696;2.114;2022-11-22T01:34:27;97773.81;;;5.60;100.00
12536;BME280;6334;48.696;2.114;2022-11-22T01:36:58;97767.05;;;5.74;100.00
12536;BME280;6334;48.696;2.114;2022-11-22T01:39:28;97763.58;;;5.77;100.00
12536;BME280;6334;48.696;2.114;2022-11-22T01:41:58;97760.25;;;5.66;100.00
12536;BME280;6334;48.696;2.114;2022-11-22T01:44:30;97757.76;;;5.67;100.00
12536;BME280;6334;48.696;2.114;2022-11-22T01:47:02;97755.84;;;5.64;100.00
12536;BME280;6334;48.696;2.114;2022-11-22T01:49:34;97746.92;;;5.75;100.00
12536;BME280;6334;48.696;2.114;2022-11-22T01:52:09;97745.52;;;5.61;100.00
12536;BME280;6334;48.696;2.114;2022-11-22T01:54:37;97743.87;;;5.71;100.00
12536;BME280;6334;48.696;2.114;2022-11-22T01:57:08;97740.95;;;5.61;100.00
12536;BME280;6334;48.696;2.114;2022-11-22T01:59:38;97741.57;;;5.71;100.00
12536;BME280;6334;48.696;2.114;2022-11-22T02:02:07;97754.06;;;5.59;100.00
12536;BME280;6334;48.696;2.114;2022-11-22T02:04:37;97751.28;;;5.70;100.00
12536;BME280;6334;48.696;2.114;2022-11-22T02:07:18;97694.91;;;5.38;100.00
12536;BME280;6334;48.696;2.114;2022-11-22T02:09:43;97755.41;;;5.67;100.00
12536;BME280;6334;48.696;2.114;2022-11-22T02:12:14;97753.44;;;5.74;100.00
12536;BME280;6334;48.696;2.114;2022-11-22T02:14:44;97747.74;;;5.52;100.00
12536;BME280;6334;48.696;2.114;2022-11-22T02:17:15;97744.34;;;5.63;100.00
12536;BME280;6334;48.696;2.114;2022-11-22T02:19:46;97748.82;;;5.54;100.00
12536;BME280;6334;48.696;2.114;2022-11-22T02:27:26;97760.12;;;5.58;100.00
12536;BME280;6334;48.696;2.114;2022-11-22T02:29:56;97748.88;;;5.70;100.00
12536;BME280;6334;48.696;2.114;2022-11-22T02:32:27;97744.27;;;5.70;100.00
12536;BME280;6334;48.696;2.114;2022-11-22T02:34:57;97744.75;;;5.81;100.00
12536;BME280;6334;48.696;2.114;2022-11-22T02:37:28;97732.70;;;5.67;100.00
12536;BME280;6334;48.696;2.114;2022-11-22T02:39:59;97733.67;;;5.78;100.00
12536;BME280;6334;48.696;2.114;2022-11-22T02:42:28;97731.78;;;5.82;100.00
12536;BME280;6334;48.696;2.114;2022-11-22T02:44:59;97721.84;;;5.71;100.00
12536;BME280;6334;48.696;2.114;2022-11-22T02:47:29;97727.41;;;5.80;100.00
12536;BME280;6334;48.696;2.114;2022-11-22T02:50:00;97727.44;;;5.76;100.00
12536;BME280;6334;48.696;2.114;2022-11-22T02:52:30;97722.34;;;5.68;100.00
12536;BME280;6334;48.696;2.114;2022-11-22T02:55:01;97722.42;;;5.67;100.00
12536;BME280;6334;48.696;2.114;2022-11-22T02:57:31;97711.09;;;5.67;100.00
12536;BME280;6334;48.696;2.114;2022-11-22T03:00:02;97715.42;;;5.74;100.00
12536;BME280;6334;48.696;2.114;2022-11-22T03:02:32;97717.79;;;5.85;100.00
12536;BME280;6334;48.696;2.114;2022-11-22T03:05:03;97711.03;;;5.83;100.00
12536;BME280;6334;48.696;2.114;2022-11-22T03:07:33;97705.62;;;5.85;100.00
12536;BME280;6334;48.696;2.114;2022-11-22T03:10:03;97666.45;;;5.65;100.00
12536;BME280;6334;48.696;2.114;2022-11-22T03:12:34;97704.06;;;5.78;100.00
12536;BME280;6334;48.696;2.114;2022-11-22T03:15:04;97699.09;;;5.87;100.00
12536;BME280;6334;48.696;2.114;2022-11-22T03:17:35;97695.38;;;5.98;100.00
12536;BME280;6334;48.696;2.114;2022-11-22T03:20:05;97700.88;;;5.89;100.00
12536;BME280;6334;48.696;2.114;2022-11-22T03:22:36;97698.95;;;6.02;100.00
12536;BME280;6334;48.696;2.114;2022-11-22T03:25:07;97688.62;;;5.99;100.00
12536;BME280;6334;48.696;2.114;2022-11-22T03:27:37;97690.61;;;6.10;100.00
12536;BME280;6334;48.696;2.114;2022-11-22T03:30:07;97695.73;;;6.07;100.00
12536;BME280;6334;48.696;2.114;2022-11-22T03:32:38;97604.70;;;5.60;100.00
12536;BME280;6334;48.696;2.114;2022-11-22T03:35:08;97700.95;;;6.00;100.00
12536;BME280;6334;48.696;2.114;2022-11-22T03:37:39;97691.37;;;6.06;100.00
12536;BME280;6334;48.696;2.114;2022-11-22T03:40:09;97702.27;;;6.03;100.00
12536;BME280;6334;48.696;2.114;2022-11-22T03:42:40;97686.85;;;6.07;100.00
12536;BME280;6334;48.696;2.114;2022-11-22T03:45:10;97695.73;;;6.16;100.00
12536;BME280;6334;48.696;2.114;2022-11-22T03:47:41;97701.56;;;6.12;100.00
12536;BME280;6334;48.696;2.114;2022-11-22T03:50:11;97698.25;;;6.09;100.00
12536;BME280;6334;48.696;2.114;2022-11-22T03:52:42;97705.88;;;6.15;100.00
12536;BME280;6334;48.696;2.114;2022-11-22T03:55:12;97711.83;;;6.22;100.00
12536;BME280;6334;48.696;2.114;2022-11-22T03:57:43;97701.84;;;6.13;100.00
12536;BME280;6334;48.696;2.114;2022-11-22T04:00:13;97706.06;;;6.16;100.00
12536;BME280;6334;48.696;2.114;2022-11-22T04:02:44;97702.54;;;6.12;100.00
12536;BME280;6334;48.696;2.114;2022-11-22T04:05:14;97702.48;;;6.15;100.00
12536;BME280;6334;48.696;2.114;2022-11-22T04:07:44;97703.56;;;6.19;100.00
12536;BME280;6334;48.696;2.114;2022-11-22T04:10:15;97697.30;;;6.16;100.00
12536;BME280;6334;48.696;2.114;2022-11-22T04:12:45;97696.06;;;6.21;100.00
12536;BME280;6334;48.696;2.114;2022-11-22T04:15:16;97697.36;;;6.27;100.00
12536;BME280;6334;48.696;2.114;2022-11-22T04:17:46;97688.28;;;6.22;100.00
12536;BME280;6334;48.696;2.114;2022-11-22T04:20:22;97677.53;;;6.20;100.00
12536;BME280;6334;48.696;2.114;2022-11-22T04:23:11;97665.64;;;6.33;100.00
12536;BME280;6334;48.696;2.114;2022-11-22T04:25:42;97668.96;;;6.17;100.00
12536;BME280;6334;48.696;2.114;2022-11-22T04:28:12;97667.58;;;6.30;100.00
12536;BME280;6334;48.696;2.114;2022-11-22T04:30:42;97666.44;;;6.16;100.00
12536;BME280;6334;48.696;2.114;2022-11-22T04:33:30;97651.07;;;6.14;100.00
12536;BME280;6334;48.696;2.114;2022-11-22T04:36:01;97658.95;;;6.24;100.00
12536;BME280;6334;48.696;2.114;2022-11-22T04:38:31;97648.15;;;6.22;100.00
12536;BME280;6334;48.696;2.114;2022-11-22T04:41:02;97639.83;;;6.14;100.00
12536;BME280;6334;48.696;2.114;2022-11-22T04:43:32;97598.19;;;5.94;100.00
12536;BME280;6334;48.696;2.114;2022-11-22T04:46:21;97644.09;;;6.25;100.00
12536;BME280;6334;48.696;2.114;2022-11-22T04:48:51;97649.34;;;6.22;100.00
12536;BME280;6334;48.696;2.114;2022-11-22T04:51:22;97601.25;;;5.92;100.00
12536;BME280;6334;48.696;2.114;2022-11-22T04:54:10;97658.26;;;6.22;100.00
12536;BME280;6334;48.696;2.114;2022-11-22T04:56:41;97667.62;;;6.35;100.00
12536;BME280;6334;48.696;2.114;2022-11-22T04:59:11;97654.53;;;6.16;100.00
12536;BME280;6334;48.696;2.114;2022-11-22T05:01:42;97661.05;;;6.22;100.00
12536;BME280;6334;48.696;2.114;2022-11-22T05:04:12;97582.89;;;5.86;100.00
12536;BME280;6334;48.696;2.114;2022-11-22T05:06:43;97669.85;;;6.22;100.00
12536;BME280;6334;48.696;2.114;2022-11-22T05:09:13;97667.91;;;6.30;100.00
12536;BME280;6334;48.696;2.114;2022-11-22T05:11:44;97666.10;;;6.31;100.00
12536;BME280;6334;48.696;2.114;2022-11-22T05:14:14;97664.22;;;6.21;100.00
12536;BME280;6334;48.696;2.114;2022-11-22T05:16:44;97677.16;;;6.34;100.00
12536;BME280;6334;48.696;2.114;2022-11-22T05:19:15;97676.66;;;6.41;100.00
12536;BME280;6334;48.696;2.114;2022-11-22T05:21:46;97675.58;;;6.20;100.00
12536;BME280;6334;48.696;2.114;2022-11-22T05:24:16;97668.73;;;6.18;100.00
12536;BME280;6334;48.696;2.114;2022-11-22T05:26:46;97681.23;;;6.23;100.00
12536;BME280;6334;48.696;2.114;2022-11-22T05:29:17;97637.92;;;5.95;100.00
12536;BME280;6334;48.696;2.114;2022-11-22T05:31:48;97674.98;;;6.26;100.00
12536;BME280;6334;48.696;2.114;2022-11-22T05:34:18;97676.04;;;6.27;100.00
12536;BME280;6334;48.696;2.114;2022-11-22T05:36:48;97662.37;;;6.26;100.00
12536;BME280;6334;48.696;2.114;2022-11-22T05:39:19;97661.95;;;6.32;100.00
12536;BME280;6334;48.696;2.114;2022-11-22T05:41:49;97654.09;;;6.30;100.00
12536;BME280;6334;48.696;2.114;2022-11-22T05:44:22;97659.31;;;6.23;100.00
12536;BME280;6334;48.696;2.114;2022-11-22T05:46:53;97665.44;;;6.35;100.00
12536;BME280;6334;48.696;2.114;2022-11-22T05:49:23;97666.27;;;6.22;100.00
12536;BME280;6334;48.696;2.114;2022-11-22T05:51:54;97601.05;;;5.91;100.00
12536;BME280;6334;48.696;2.114;2022-11-22T05:54:24;97645.59;;;6.11;100.00
12536;BME280;6334;48.696;2.114;2022-11-22T05:56:55;97673.63;;;6.33;100.00
12536;BME280;6334;48.696;2.114;2022-11-22T05:59:25;97674.00;;;6.27;100.00
12536;BME280;6334;48.696;2.114;2022-11-22T06:01:56;97671.84;;;6.31;100.00
12536;BME280;6334;48.696;2.114;2022-11-22T06:04:26;97674.79;;;6.41;100.00
12536;BME280;6334;48.696;2.114;2022-11-22T06:06:57;97673.89;;;6.30;100.00
12536;BME280;6334;48.696;2.114;2022-11-22T06:09:27;97678.94;;;6.40;100.00
12536;BME280;6334;48.696;2.114;2022-11-22T06:11:58;97680.48;;;6.32;100.00
12536;BME280;6334;48.696;2.114;2022-11-22T06:14:28;97681.51;;;6.42;100.00
12536;BME280;6334;48.696;2.114;2022-11-22T06:16:59;97674.32;;;6.36;100.00
12536;BME280;6334;48.696;2.114;2022-11-22T06:19:29;97675.59;;;6.39;100.00
12536;BME280;6334;48.696;2.114;2022-11-22T06:22:00;97679.17;;;6.37;100.00
12536;BME280;6334;48.696;2.114;2022-11-22T06:24:30;97672.53;;;6.38;100.00
12536;BME280;6334;48.696;2.114;2022-11-22T06:27:00;97679.88;;;6.33;100.00
12536;BME280;6334;48.696;2.114;2022-11-22T06:29:32;97673.94;;;6.36;100.00
12536;BME280;6334;48.696;2.114;2022-11-22T06:32:02;97678.81;;;6.44;100.00
12536;BME280;6334;48.696;2.114;2022-11-22T06:34:32;97674.63;;;6.33;100.00
12536;BME280;6334;48.696;2.114;2022-11-22T06:37:02;97674.29;;;6.49;100.00
12536;BME280;6334;48.696;2.114;2022-11-22T06:39:33;97678.21;;;6.40;100.00
12536;BME280;6334;48.696;2.114;2022-11-22T06:42:03;97677.98;;;6.40;100.00
12536;BME280;6334;48.696;2.114;2022-11-22T06:44:34;97677.45;;;6.45;100.00
12536;BME280;6334;48.696;2.114;2022-11-22T06:47:04;97685.16;;;6.54;100.00
12536;BME280;6334;48.696;2.114;2022-11-22T06:49:35;97680.65;;;6.98;100.00
12536;BME280;6334;48.696;2.114;2022-11-22T06:52:05;97679.42;;;6.63;100.00
12536;BME280;6334;48.696;2.114;2022-11-22T06:54:37;97682.30;;;6.55;100.00
12536;BME280;6334;48.696;2.114;2022-11-22T06:57:11;97685.72;;;6.62;100.00
12536;BME280;6334;48.696;2.114;2022-11-22T07:00:30;97689.69;;;6.58;100.00
12536;BME280;6334;48.696;2.114;2022-11-22T07:03:09;97640.27;;;6.10;100.00
12536;BME280;6334;48.696;2.114;2022-11-22T07:06:31;97672.62;;;6.37;100.00
12536;BME280;6334;48.696;2.114;2022-11-22T07:09:00;97700.31;;;6.58;100.00
12536;BME280;6334;48.696;2.114;2022-11-22T07:11:33;97700.73;;;6.53;100.00
12536;BME280;6334;48.696;2.114;2022-11-22T07:14:25;97661.30;;;6.25;100.00
12536;BME280;6334;48.696;2.114;2022-11-22T07:16:58;97714.94;;;6.93;100.00
12536;BME280;6334;48.696;2.114;2022-11-22T07:19:28;97719.70;;;7.12;100.00
12536;BME280;6334;48.696;2.114;2022-11-22T07:21:59;97714.66;;;6.98;100.00
12536;BME280;6334;48.696;2.114;2022-11-22T07:24:28;97729.36;;;6.98;100.00
12536;BME280;6334;48.696;2.114;2022-11-22T07:26:58;97731.98;;;6.81;100.00
12536;BME280;6334;48.696;2.114;2022-11-22T07:29:29;97738.91;;;7.05;100.00
12536;BME280;6334;48.696;2.114;2022-11-22T07:31:58;97745.05;;;7.12;100.00
12536;BME280;6334;48.696;2.114;2022-11-22T07:34:29;97750.59;;;7.34;100.00
12536;BME280;6334;48.696;2.114;2022-11-22T07:36:59;97748.61;;;7.11;100.00
12536;BME280;6334;48.696;2.114;2022-11-22T07:39:31;97749.45;;;7.18;100.00
12536;BME280;6334;48.696;2.114;2022-11-22T07:42:01;97756.28;;;7.15;100.00
12536;BME280;6334;48.696;2.114;2022-11-22T07:44:33;97760.27;;;6.99;100.00
12536;BME280;6334;48.696;2.114;2022-11-22T07:47:15;97757.71;;;7.10;100.00
12536;BME280;6334;48.696;2.114;2022-11-22T07:49:46;97755.38;;;7.17;100.00
12536;BME280;6334;48.696;2.114;2022-11-22T07:52:16;97746.34;;;7.29;100.00
12536;BME280;6334;48.696;2.114;2022-11-22T07:54:47;97753.28;;;7.27;100.00
12536;BME280;6334;48.696;2.114;2022-11-22T07:57:19;97751.08;;;7.22;100.00
12536;BME280;6334;48.696;2.114;2022-11-22T07:59:53;97753.92;;;6.91;100.00
12536;BME280;6334;48.696;2.114;2022-11-22T08:02:22;97760.88;;;6.86;100.00
12536;BME280;6334;48.696;2.114;2022-11-22T08:04:52;97758.94;;;6.87;100.00
12536;BME280;6334;48.696;2.114;2022-11-22T08:07:27;97767.09;;;6.83;100.00
12536;BME280;6334;48.696;2.114;2022-11-22T08:10:04;97759.41;;;6.78;100.00
12536;BME280;6334;48.696;2.114;2022-11-22T08:12:40;97759.42;;;6.87;100.00
12536;BME280;6334;48.696;2.114;2022-11-22T08:15:11;97762.50;;;6.93;100.00
12536;BME280;6334;48.696;2.114;2022-11-22T08:17:42;97762.73;;;6.92;100.00
12536;BME280;6334;48.696;2.114;2022-11-22T08:20:34;97766.84;;;7.02;100.00
12536;BME280;6334;48.696;2.114;2022-11-22T08:23:05;97763.53;;;6.89;100.00
12536;BME280;6334;48.696;2.114;2022-11-22T08:26:25;97594.48;;;5.64;100.00
12536;BME280;6334;48.696;2.114;2022-11-22T08:28:55;97773.14;;;6.95;100.00
12536;BME280;6334;48.696;2.114;2022-11-22T08:32:42;97772.09;;;6.85;100.00
12536;BME280;6334;48.696;2.114;2022-11-22T08:35:11;97770.70;;;6.87;100.00
12536;BME280;6334;48.696;2.114;2022-11-22T08:37:44;97773.48;;;6.94;100.00
12536;BME280;6334;48.696;2.114;2022-11-22T08:40:19;97788.69;;;6.87;100.00
12536;BME280;6334;48.696;2.114;2022-11-22T08:43:13;97612.47;;;5.88;100.00
12536;BME280;6334;48.696;2.114;2022-11-22T08:45:52;97775.12;;;7.10;100.00
12536;BME280;6334;48.696;2.114;2022-11-22T08:48:21;97776.05;;;6.89;100.00
12536;BME280;6334;48.696;2.114;2022-11-22T08:50:57;97794.77;;;6.99;100.00
12536;BME280;6334;48.696;2.114;2022-11-22T08:53:25;97799.00;;;7.05;100.00
12536;BME280;6334;48.696;2.114;2022-11-22T08:55:57;97802.73;;;7.08;100.00
12536;BME280;6334;48.696;2.114;2022-11-22T08:59:37;97798.81;;;7.16;100.00
12536;BME280;6334;48.696;2.114;2022-11-22T09:02:09;97801.61;;;7.20;100.00
12536;BME280;6334;48.696;2.114;2022-11-22T09:04:40;97805.14;;;7.21;100.00
12536;BME280;6334;48.696;2.114;2022-11-22T09:07:14;97803.88;;;7.27;100.00
12536;BME280;6334;48.696;2.114;2022-11-22T09:10:11;97810.20;;;7.40;100.00
12536;BME280;6334;48.696;2.114;2022-11-22T09:12:45;97814.68;;;7.33;100.00
12536;BME280;6334;48.696;2.114;2022-11-22T09:18:14;97802.89;;;7.26;100.00
12536;BME280;6334;48.696;2.114;2022-11-22T09:21:05;97812.58;;;7.46;100.00
12536;BME280;6334;48.696;2.114;2022-11-22T09:23:40;97814.03;;;7.56;100.00
12536;BME280;6334;48.696;2.114;2022-11-22T09:26:16;97809.96;;;7.48;100.00
12536;BME280;6334;48.696;2.114;2022-11-22T09:28:49;97821.19;;;7.57;100.00
12536;BME280;6334;48.696;2.114;2022-11-22T09:31:20;97827.95;;;7.59;100.00
12536;BME280;6334;48.696;2.114;2022-11-22T09:36:16;97831.65;;;7.76;100.00
12536;BME280;6334;48.696;2.114;2022-11-22T09:38:38;97827.53;;;7.75;100.00
12536;BME280;6334;48.696;2.114;2022-11-22T09:44:44;97852.67;;;7.83;100.00
12536;BME280;6334;48.696;2.114;2022-11-22T09:50:53;97847.03;;;8.26;100.00
12536;BME280;6334;48.696;2.114;2022-11-22T09:53:26;97839.41;;;8.20;100.00
12536;BME280;6334;48.696;2.114;2022-11-22T09:55:58;97850.06;;;8.14;100.00
12536;BME280;6334;48.696;2.114;2022-11-22T09:59:03;97825.25;;;7.89;100.00
12536;BME280;6334;48.696;2.114;2022-11-22T10:04:26;97851.31;;;8.29;100.00
12536;BME280;6334;48.696;2.114;2022-11-22T10:06:58;97845.63;;;8.34;100.00
12536;BME280;6334;48.696;2.114;2022-11-22T10:09:47;97845.63;;;8.38;100.00
12536;BME280;6334;48.696;2.114;2022-11-22T10:19:00;97776.39;;;8.18;100.00
12536;BME280;6334;48.696;2.114;2022-11-22T10:21:34;97847.87;;;8.52;100.00
12536;BME280;6334;48.696;2.114;2022-11-22T10:24:17;97864.03;;;8.40;100.00
12536;BME280;6334;48.696;2.114;2022-11-22T10:26:48;97846.14;;;8.52;100.00
12536;BME280;6334;48.696;2.114;2022-11-22T10:29:54;97844.30;;;8.53;100.00
12536;BME280;6334;48.696;2.114;2022-11-22T10:35:15;97851.84;;;8.62;100.00
12536;BME280;6334;48.696;2.114;2022-11-22T10:38:11;97858.09;;;8.58;100.00
12536;BME280;6334;48.696;2.114;2022-11-22T11:01:41;97878.78;;;9.05;100.00
12536;BME280;6334;48.696;2.114;2022-11-22T11:04:09;97878.60;;;8.82;100.00
12536;BME280;6334;48.696;2.114;2022-11-22T11:06:53;97668.77;;;7.56;100.00
12536;BME280;6334;48.696;2.114;2022-11-22T11:09:58;97889.95;;;8.92;100.00
12536;BME280;6334;48.696;2.114;2022-11-22T11:13:01;97876.42;;;9.10;100.00
12536;BME280;6334;48.696;2.114;2022-11-22T11:15:41;97881.52;;;9.13;100.00
12536;BME280;6334;48.696;2.114;2022-11-22T11:24:38;97886.50;;;9.11;100.00
12536;BME280;6334;48.696;2.114;2022-11-22T11:27:10;97892.87;;;9.28;100.00
12536;BME280;6334;48.696;2.114;2022-11-22T11:29:53;97894.36;;;9.38;100.00
12536;BME280;6334;48.696;2.114;2022-11-22T11:32:20;97887.48;;;9.15;100.00
12536;BME280;6334;48.696;2.114;2022-11-22T11:35:00;97878.16;;;9.25;100.00
12536;BME280;6334;48.696;2.114;2022-11-22T11:37:33;97881.73;;;9.30;100.00
12536;BME280;6334;48.696;2.114;2022-11-22T11:40:02;97874.47;;;9.25;100.00
12536;BME280;6334;48.696;2.114;2022-11-22T11:42:32;97878.36;;;9.33;100.00
12536;BME280;6334;48.696;2.114;2022-11-22T11:47:49;97876.34;;;9.45;100.00
12536;BME280;6334;48.696;2.114;2022-11-22T11:50:23;97879.63;;;9.52;100.00
12536;BME280;6334;48.696;2.114;2022-11-22T11:52:55;97880.28;;;9.47;100.00
12536;BME280;6334;48.696;2.114;2022-11-22T11:55:21;97868.15;;;9.49;100.00
12536;BME280;6334;48.696;2.114;2022-11-22T11:57:54;97870.30;;;9.31;100.00
12536;BME280;6334;48.696;2.114;2022-11-22T12:00:25;97859.66;;;9.38;100.00
12536;BME280;6334;48.696;2.114;2022-11-22T12:02:58;97868.38;;;9.39;100.00
12536;BME280;6334;48.696;2.114;2022-11-22T12:05:32;97867.14;;;9.57;100.00
12536;BME280;6334;48.696;2.114;2022-11-22T12:08:29;97866.59;;;9.58;100.00
12536;BME280;6334;48.696;2.114;2022-11-22T12:11:06;97865.10;;;9.56;100.00
12536;BME280;6334;48.696;2.114;2022-11-22T12:13:46;97850.72;;;9.51;100.00
12536;BME280;6334;48.696;2.114;2022-11-22T12:16:35;97867.89;;;9.66;100.00
12536;BME280;6334;48.696;2.114;2022-11-22T12:22:13;97882.38;;;9.87;100.00
12536;BME280;6334;48.696;2.114;2022-11-22T12:25:00;97863.79;;;9.60;100.00
12536;BME280;6334;48.696;2.114;2022-11-22T12:27:29;97885.33;;;9.64;100.00
12536;BME280;6334;48.696;2.114;2022-11-22T12:30:00;97882.41;;;9.67;100.00
12536;BME280;6334;48.696;2.114;2022-11-22T12:32:37;97888.67;;;9.69;100.00
12536;BME280;6334;48.696;2.114;2022-11-22T12:35:13;97883.76;;;9.75;100.00
12536;BME280;6334;48.696;2.114;2022-11-22T12:37:59;97894.86;;;9.80;100.00
12536;BME280;6334;48.696;2.114;2022-11-22T12:40:31;97893.70;;;9.80;100.00
12536;BME280;6334;48.696;2.114;2022-11-22T12:42:59;97892.70;;;9.75;100.00
12536;BME280;6334;48.696;2.114;2022-11-22T12:45:31;97883.73;;;9.60;100.00
12536;BME280;6334;48.696;2.114;2022-11-22T12:48:02;97896.75;;;9.75;100.00
12536;BME280;6334;48.696;2.114;2022-11-22T12:50:37;97902.98;;;9.75;100.00
12536;BME280;6334;48.696;2.114;2022-11-22T12:53:15;97898.70;;;9.71;100.00
12536;BME280;6334;48.696;2.114;2022-11-22T12:55:50;97902.06;;;10.00;100.00
12536;BME280;6334;48.696;2.114;2022-11-22T12:58:48;97904.63;;;9.78;100.00
12536;BME280;6334;48.696;2.114;2022-11-22T13:01:24;97902.70;;;9.79;100.00
12536;BME280;6334;48.696;2.114;2022-11-22T13:06:48;97896.02;;;9.96;100.00
12536;BME280;6334;48.696;2.114;2022-11-22T13:09:21;97897.50;;;9.87;100.00
12536;BME280;6334;48.696;2.114;2022-11-22T13:14:46;97898.30;;;9.79;100.00
12536;BME280;6334;48.696;2.114;2022-11-22T13:17:15;97904.78;;;9.86;100.00
12536;BME280;6334;48.696;2.114;2022-11-22T13:19:48;97901.44;;;9.97;100.00
12536;BME280;6334;48.696;2.114;2022-11-22T13:27:44;97897.08;;;9.91;100.00
12536;BME280;6334;48.696;2.114;2022-11-22T13:30:18;97900.29;;;9.93;100.00
12536;BME280;6334;48.696;2.114;2022-11-22T13:32:51;97904.13;;;9.92;100.00
12536;BME280;6334;48.696;2.114;2022-11-22T13:40:31;97905.93;;;9.88;100.00
12536;BME280;6334;48.696;2.114;2022-11-22T13:45:51;97902.81;;;9.88;100.00
12536;BME280;6334;48.696;2.114;2022-11-22T13:51:11;97901.19;;;9.97;100.00
12536;BME280;6334;48.696;2.114;2022-11-22T13:53:41;97902.69;;;10.02;100.00
12536;BME280;6334;48.696;2.114;2022-11-22T13:58:49;97895.75;;;9.96;100.00
12536;BME280;6334;48.696;2.114;2022-11-22T14:06:59;97897.58;;;10.07;100.00
12536;BME280;6334;48.696;2.114;2022-11-22T14:09:41;97898.96;;;10.13;100.00
12536;BME280;6334;48.696;2.114;2022-11-22T14:18:01;97892.54;;;10.23;100.00
12536;BME280;6334;48.696;2.114;2022-11-22T14:23:33;97894.50;;;10.32;100.00
12536;BME280;6334;48.696;2.114;2022-11-22T14:29:11;97897.37;;;10.28;100.00
12536;BME280;6334;48.696;2.114;2022-11-22T14:31:33;97903.80;;;10.20;100.00
12536;BME280;6334;48.696;2.114;2022-11-22T14:34:22;97904.37;;;10.12;100.00
12536;BME280;6334;48.696;2.114;2022-11-22T14:47:44;97901.59;;;9.95;100.00
12536;BME280;6334;48.696;2.114;2022-11-22T14:50:25;97900.77;;;9.88;100.00
12536;BME280;6334;48.696;2.114;2022-11-22T14:52:57;97894.91;;;9.84;100.00
12536;BME280;6334;48.696;2.114;2022-11-22T14:55:32;97896.72;;;9.93;100.00
12536;BME280;6334;48.696;2.114;2022-11-22T14:58:05;97906.11;;;9.89;100.00
12536;BME280;6334;48.696;2.114;2022-11-22T15:00:42;97899.61;;;9.92;100.00
12536;BME280;6334;48.696;2.114;2022-11-22T15:06:14;97905.13;;;10.04;100.00
12536;BME280;6334;48.696;2.114;2022-11-22T15:16:53;97914.51;;;9.89;100.00
12536;BME280;6334;48.696;2.114;2022-11-22T15:19:38;97912.09;;;9.96;100.00
12536;BME280;6334;48.696;2.114;2022-11-22T15:22:11;97907.42;;;9.89;100.00
12536;BME280;6334;48.696;2.114;2022-11-22T15:24:46;97908.39;;;9.88;100.00
12536;BME280;6334;48.696;2.114;2022-11-22T15:30:07;97918.76;;;9.78;100.00
12536;BME280;6334;48.696;2.114;2022-11-22T15:32:39;97914.61;;;9.71;100.00
12536;BME280;6334;48.696;2.114;2022-11-22T15:35:15;97912.08;;;9.69;100.00
12536;BME280;6334;48.696;2.114;2022-11-22T15:37:54;97920.80;;;9.66;100.00
12536;BME280;6334;48.696;2.114;2022-11-22T15:40:25;97922.60;;;9.72;100.00
12536;BME280;6334;48.696;2.114;2022-11-22T15:42:59;97922.84;;;9.71;100.00
12536;BME280;6334;48.696;2.114;2022-11-22T15:45:31;97922.04;;;9.78;100.00
12536;BME280;6334;48.696;2.114;2022-11-22T15:48:04;97919.22;;;9.60;100.00
12536;BME280;6334;48.696;2.114;2022-11-22T15:50:31;97918.80;;;9.68;100.00
12536;BME280;6334;48.696;2.114;2022-11-22T15:53:24;97923.91;;;9.61;100.00
12536;BME280;6334;48.696;2.114;2022-11-22T15:58:55;97927.77;;;9.65;100.00